Time;durP1;ratioP1;P1;durP2;ratioP2;P2;SDS_P1;SDS_P2;PMS_P1;PMS_P2;Temp;Humidity;BMP_temperature;BMP_pressure;BME280_temperature;BME280_humidity;BME280_pressure;Samples;Min_cycle;Max_cycle;Signal;HPM_P1;HPM_P2
2024/01/15 00:00:32;;;;;;;216.85;8.65;;;;;;;19.70;52.27;97536.69;7291164;19;129916;-36
2024/01/15 00:02:58;;;;;;;153.75;6.30;;;;;;;19.72;52.41;97529.50;7289713;19;130796;-33
2024/01/15 00:05:23;;;;;;;200.95;8.13;;;;;;;19.61;51.93;97517.72;7290541;19;129009;-40
2024/01/15 00:07:49;;;;;;;196.25;7.82;;;;;;;19.74;52.07;97527.50;7290778;19;129768;-40
2024/01/15 00:10:14;;;;;;;200.20;8.48;;;;;;;19.73;52.26;97531.94;7289605;19;131616;-36
2024/01/15 00:12:40;;;;;;;187.13;7.80;;;;;;;19.61;52.58;97512.50;7289989;19;130578;-35
2024/01/15 00:15:05;;;;;;;242.85;10.02;;;;;;;19.61;52.62;97516.88;7292492;19;129629;-38
2024/01/15 00:17:31;;;;;;;216.32;8.75;;;;;;;19.61;52.79;97516.88;7288628;19;130902;-40
2024/01/15 00:19:56;;;;;;;143.80;5.90;;;;;;;19.62;52.43;97508.09;7292371;19;130986;-39
2024/01/15 00:22:23;;;;;;;260.80;10.30;;;;;;;19.59;52.79;97513.66;7288273;19;131687;-38
2024/01/15 00:24:48;;;;;;;;;;;;;;;19.57;54.10;97515.63;7291790;19;129194;-38
2024/01/15 00:27:14;;;;;;;316.40;13.63;;;;;;;19.45;52.75;97495.19;7288393;19;130148;-37
2024/01/15 00:29:39;;;;;;;214.63;8.93;;;;;;;19.62;52.70;97513.31;7287345;19;131894;-40
2024/01/15 00:32:05;;;;;;;208.73;8.45;;;;;;;19.46;52.89;97477.78;7290599;19;129896;-37
2024/01/15 00:34:30;;;;;;;225.63;9.05;;;;;;;19.56;53.10;97503.56;7289005;19;129914;-38
2024/01/15 00:36:55;;;;;;;280.15;11.43;;;;;;;19.64;52.43;97500.88;7283239;19;130258;-38
2024/01/15 00:39:21;;;;;;;214.55;8.55;;;;;;;19.74;52.32;97496.22;7288008;19;130695;-38
2024/01/15 00:41:46;;;;;;;200.32;8.18;;;;;;;19.72;51.76;97500.84;7290635;19;131800;-38
2024/01/15 00:44:12;;;;;;;190.10;7.75;;;;;;;19.78;52.24;97495.72;7289297;19;129782;-38
2024/01/15 00:46:47;;;;;;;207.40;8.90;;;;;;;19.76;51.72;97483.81;7288812;19;130616;-38
2024/01/15 00:49:13;;;;;;;177.85;7.18;;;;;;;19.73;51.58;97487.63;7284330;19;131520;-44
2024/01/15 00:51:39;;;;;;;274.50;11.10;;;;;;;19.71;51.55;97491.38;7288473;19;130777;-42
2024/01/15 00:54:05;;;;;;;231.18;9.68;;;;;;;19.78;52.29;97494.91;7291065;19;130812;-39
2024/01/15 00:56:33;;;;;;;203.65;8.85;;;;;;;19.79;52.07;97488.69;7284045;19;130590;-40
2024/01/15 00:59:00;;;;;;;174.70;7.15;;;;;;;19.78;51.92;97487.91;7288685;19;131498;-39
2024/01/15 01:01:25;;;;;;;258.30;10.60;;;;;;;19.80;51.95;97474.69;7285106;19;129795;-42
2024/01/15 01:03:50;;;;;;;227.50;9.27;;;;;;;19.76;52.54;97466.41;7287624;19;130591;-43
2024/01/15 01:06:16;;;;;;;166.50;6.68;;;;;;;19.74;52.75;97464.94;7289240;19;132974;-38
2024/01/15 01:08:41;;;;;;;186.82;7.55;;;;;;;19.63;53.01;97468.00;7287288;19;131350;-39
2024/01/15 01:11:07;;;;;;;269.73;11.18;;;;;;;19.48;52.90;97445.31;7275751;19;130745;-35
2024/01/15 01:13:33;;;;;;;283.95;12.15;;;;;;;19.61;52.78;97464.75;7271982;19;131376;-35
2024/01/15 01:15:58;;;;;;;253.17;10.73;;;;;;;19.59;53.25;97456.31;7273434;19;132117;-38
2024/01/15 01:18:23;;;;;;;196.68;7.82;;;;;;;19.47;53.52;97431.69;7274189;19;130606;-34
2024/01/15 01:20:49;;;;;;;221.93;8.82;;;;;;;19.60;52.62;97431.88;7289356;19;129166;-38
2024/01/15 01:23:14;;;;;;;156.90;6.25;;;;;;;19.63;52.24;97441.94;7290182;19;129934;-38
2024/01/15 01:25:39;;;;;;;215.05;9.27;;;;;;;19.61;53.04;97438.69;7285755;19;130087;-38
2024/01/15 01:28:05;;;;;;;213.80;8.70;;;;;;;19.64;52.61;97438.34;7288471;19;129523;-40
2024/01/15 01:30:30;;;;;;;236.10;9.82;;;;;;;19.66;52.45;97428.53;7288871;19;129084;-41
2024/01/15 01:32:56;;;;;;;243.77;10.20;;;;;;;19.66;51.64;97438.97;7288364;19;129257;-38
2024/01/15 01:35:22;;;;;;;121.15;5.03;;;;;;;19.63;51.79;97428.91;7287369;19;131144;-39
2024/01/15 01:37:47;;;;;;;263.73;10.70;;;;;;;19.47;51.77;97406.41;7287985;19;132601;-39
2024/01/15 01:40:12;;;;;;;332.20;14.18;;;;;;;19.60;52.32;97426.66;7288932;19;129714;-37
2024/01/15 01:42:38;;;;;;;216.20;9.20;;;;;;;19.62;52.57;97420.25;7289215;19;129215;-38
2024/01/15 01:45:04;;;;;;;233.35;9.88;;;;;;;19.60;53.00;97426.66;7286603;19;131136;-37
2024/01/15 01:47:29;;;;;;;215.87;8.37;;;;;;;19.57;52.65;97424.41;7293414;19;131082;-36
2024/01/15 01:49:55;;;;;;;180.75;7.45;;;;;;;19.57;52.73;97427.03;7297206;19;130199;-39
2024/01/15 01:52:20;;;;;;;190.52;7.95;;;;;;;19.58;52.44;97434.66;7293901;19;132981;-37
2024/01/15 01:54:46;;;;;;;263.08;11.02;;;;;;;19.56;52.97;97428.00;7292581;19;131103;-35
2024/01/15 01:57:12;;;;;;;207.48;8.45;;;;;;;19.55;52.96;97434.22;7294158;19;131593;-35
2024/01/15 01:59:38;;;;;;;186.67;7.73;;;;;;;19.55;52.72;97426.38;7295418;19;129537;-39
2024/01/15 02:02:05;;;;;;;173.23;7.07;;;;;;;19.48;52.75;97424.47;7294920;19;129834;-41
2024/01/15 02:04:31;;;;;;;229.77;9.27;;;;;;;19.48;53.48;97431.50;7293927;19;131559;-36
2024/01/15 02:06:56;;;;;;;174.23;6.78;;;;;;;19.48;52.96;97422.88;7294933;19;130407;-38
2024/01/15 02:09:22;;;;;;;142.68;5.88;;;;;;;19.43;53.33;97421.63;7296952;19;129177;-38
2024/01/15 02:11:47;;;;;;;224.70;8.98;;;;;;;19.42;53.61;97412.19;7291707;19;131169;-36
2024/01/15 02:14:13;;;;;;;216.55;8.48;;;;;;;19.35;52.92;97402.66;7294461;19;130282;-38
2024/01/15 02:16:39;;;;;;;308.95;13.18;;;;;;;19.47;53.04;97423.88;7290412;19;129905;-37
2024/01/15 02:19:04;;;;;;;278.83;11.75;;;;;;;19.49;52.60;97409.66;7276175;19;130856;-37
2024/01/15 02:21:31;;;;;;;260.52;11.02;;;;;;;19.53;52.12;97415.31;7277092;19;130907;-37
2024/01/15 02:23:57;;;;;;;215.32;8.70;;;;;;;19.96;50.93;97411.91;7287200;19;130202;-38
2024/01/15 02:26:23;;;;;;;165.48;6.50;;;;;;;20.36;50.08;97419.22;7295944;19;130293;-38
2024/01/15 02:28:48;;;;;;;240.80;10.43;;;;;;;20.46;49.63;97412.69;7289897;19;130132;-38
2024/01/15 02:31:14;;;;;;;105.07;4.40;;;;;;;20.57;49.46;97408.81;7293006;19;129293;-37
2024/01/15 02:33:39;;;;;;;259.75;10.40;;;;;;;20.61;49.39;97413.47;7294884;19;132496;-38
2024/01/15 02:36:05;;;;;;;183.07;7.55;;;;;;;20.59;49.58;97401.59;7293145;19;131010;-38
2024/01/15 02:38:31;;;;;;;227.23;9.37;;;;;;;20.60;49.82;97405.81;7290029;19;130869;-38
2024/01/15 02:40:56;;;;;;;186.95;7.57;;;;;;;20.50;50.11;97400.91;7293182;19;129758;-38
2024/01/15 02:43:21;;;;;;;212.98;8.40;;;;;;;20.52;49.98;97398.94;7294281;19;130105;-37
2024/01/15 02:45:47;;;;;;;210.35;9.00;;;;;;;20.43;50.36;97388.78;7291022;19;130894;-38
2024/01/15 02:48:12;;;;;;;235.95;9.20;;;;;;;20.46;50.51;97383.19;7293233;19;129073;-37
2024/01/15 02:50:37;;;;;;;183.45;7.63;;;;;;;20.36;50.88;97383.47;7291564;19;130924;-39
2024/01/15 02:53:03;;;;;;;230.18;9.23;;;;;;;20.22;50.74;97394.78;7295047;19;130953;-37
2024/01/15 02:55:31;;;;;;;198.15;8.10;;;;;;;19.87;51.43;97389.50;7290569;19;130944;-37
2024/01/15 02:57:57;;;;;;;204.70;8.35;;;;;;;19.72;52.17;97378.31;7292687;19;129683;-38
2024/01/15 03:00:22;;;;;;;260.45;10.63;;;;;;;19.62;52.38;97385.59;7288362;19;133625;-40
2024/01/15 03:02:50;;;;;;;264.70;11.48;;;;;;;19.57;51.77;97393.16;7289904;19;130701;-41
2024/01/15 03:05:16;;;;;;;154.02;6.35;;;;;;;19.45;52.25;97377.94;7291896;19;131934;-40
2024/01/15 03:07:42;;;;;;;226.98;9.77;;;;;;;19.52;52.69;97378.03;7291835;19;131028;-39
2024/01/15 03:10:07;;;;;;;182.43;7.70;;;;;;;19.53;52.06;97368.41;7291165;19;130366;-37
2024/01/15 03:12:33;;;;;;;241.48;9.60;;;;;;;19.64;51.87;97371.38;7292459;19;130201;-44
2024/01/15 03:14:58;;;;;;;251.23;10.73;;;;;;;19.79;51.96;97376.56;7290311;19;130358;-43
2024/01/15 03:17:23;;;;;;;142.43;5.97;;;;;;;19.81;51.47;97378.03;7293047;19;131303;-41
2024/01/15 03:19:49;;;;;;;246.75;10.13;;;;;;;19.85;52.03;97376.66;7293531;19;131850;-39
2024/01/15 03:22:15;;;;;;;211.57;8.27;;;;;;;19.85;51.65;97378.47;7290460;19;130976;-40
2024/01/15 03:24:41;;;;;;;246.67;10.27;;;;;;;19.77;52.20;97374.16;7292544;19;130353;-45
2024/01/15 03:27:06;;;;;;;149.77;6.03;;;;;;;19.74;52.13;97377.13;7291316;19;129905;-43
2024/01/15 03:29:31;;;;;;;226.65;9.02;;;;;;;19.73;52.48;97380.75;7293545;19;129091;-41
2024/01/15 03:31:57;;;;;;;211.00;8.48;;;;;;;19.77;52.70;97391.59;7288233;19;130989;-42
2024/01/15 03:34:22;;;;;;;200.93;8.90;;;;;;;19.74;52.16;97391.94;7293586;19;132339;-37
2024/01/15 03:36:48;;;;;;;149.65;6.43;;;;;;;19.73;52.63;97390.34;7290529;19;129889;-43
2024/01/15 03:39:13;;;;;;;264.38;10.73;;;;;;;19.73;52.22;97390.34;7290834;19;129524;-44
2024/01/15 03:41:38;;;;;;;192.80;7.88;;;;;;;19.78;52.28;97393.22;7289101;19;130189;-41
2024/01/15 03:44:04;;;;;;;193.23;7.85;;;;;;;19.63;52.25;97405.44;7293001;19;130972;-41
2024/01/15 03:46:29;;;;;;;182.02;7.35;;;;;;;19.54;53.19;97403.91;7293230;19;131953;-38
2024/01/15 03:48:54;;;;;;;183.80;7.55;;;;;;;19.48;53.06;97389.00;7290984;19;132818;-39
2024/01/15 03:51:20;;;;;;;196.55;8.07;;;;;;;19.42;52.37;97388.72;7289922;19;129564;-45
2024/01/15 03:53:46;;;;;;;204.32;8.40;;;;;;;19.54;52.58;97394.31;7290973;19;131840;-42
2024/01/15 03:56:11;;;;;;;255.77;10.70;;;;;;;19.58;52.37;97389.53;7291356;19;129548;-38
2024/01/15 03:58:37;;;;;;;203.52;8.25;;;;;;;19.56;51.80;97396.72;7286560;19;129836;-41
2024/01/15 04:01:03;;;;;;;256.38;11.18;;;;;;;19.56;52.29;97394.94;7284943;19;130280;-41
2024/01/15 04:03:28;;;;;;;145.60;6.13;;;;;;;19.64;51.94;97392.22;7290800;19;130851;-39
2024/01/15 04:05:53;;;;;;;225.07;9.07;;;;;;;19.81;51.96;97390.25;7291092;19;130458;-37
2024/01/15 04:08:19;;;;;;;178.48;7.38;;;;;;;19.84;51.48;97397.69;7290505;19;131192;-37
2024/01/15 04:10:44;;;;;;;246.20;10.52;;;;;;;19.83;51.82;97396.09;7280025;19;130672;-43
2024/01/15 04:13:10;;;;;;;240.25;10.25;;;;;;;19.82;52.14;97397.88;7271384;19;130386;-44
2024/01/15 04:15:36;;;;;;;358.48;14.50;;;;;;;19.81;51.84;97393.66;7273370;19;129423;-43
2024/01/15 04:18:02;;;;;;;288.15;12.88;;;;;;;19.81;52.05;97393.66;7275076;19;130641;-43
2024/01/15 04:20:28;;;;;;;319.25;13.82;;;;;;;19.80;52.18;97386.03;7275819;19;131428;-42
2024/01/15 04:22:53;;;;;;;140.90;5.97;;;;;;;19.80;52.03;97386.03;7282244;19;130337;-41
2024/01/15 04:25:18;;;;;;;276.98;11.23;;;;;;;19.77;52.45;97378.53;7286977;19;130062;-38
2024/01/15 04:27:44;;;;;;;233.48;9.57;;;;;;;19.74;52.82;97371.09;7288737;19;130181;-37
2024/01/15 04:30:10;;;;;;;196.52;8.05;;;;;;;19.52;52.70;97345.97;7289717;19;132447;-37
2024/01/15 04:32:35;;;;;;;217.80;8.93;;;;;;;19.64;52.39;97367.97;7279439;19;131719;-42
2024/01/15 04:35:01;;;;;;;212.50;8.45;;;;;;;19.59;53.21;97362.47;7288174;19;129556;-42
2024/01/15 04:37:26;;;;;;;187.52;7.78;;;;;;;19.56;52.30;97357.63;7290450;19;129674;-39
2024/01/15 04:39:54;;;;;;;198.32;8.50;;;;;;;19.44;52.90;97350.28;7291566;19;130238;-38
2024/01/15 04:42:20;;;;;;;202.05;8.10;;;;;;;19.56;52.22;97366.25;7289866;19;130430;-38
2024/01/15 04:44:45;;;;;;;293.13;11.90;;;;;;;19.51;52.07;97354.75;7290238;19;132212;-39
2024/01/15 04:47:11;;;;;;;184.50;7.57;;;;;;;19.56;52.51;97370.66;7285437;19;130086;-43
2024/01/15 04:49:36;;;;;;;143.40;6.00;;;;;;;19.56;52.24;97370.66;7289770;19;130091;-45
2024/01/15 04:52:02;;;;;;;230.77;9.55;;;;;;;19.57;51.79;97369.69;7286776;19;130603;-40
2024/01/15 04:54:27;;;;;;;277.77;12.20;;;;;;;19.60;51.03;97369.31;7287857;19;130997;-40
2024/01/15 04:56:52;;;;;;;207.18;8.23;;;;;;;19.73;51.69;97353.84;7290089;19;129709;-45
2024/01/15 04:59:18;;;;;;;148.30;6.40;;;;;;;19.92;51.25;97351.47;7288989;19;130709;-41
2024/01/15 05:01:43;;;;;;;274.98;11.27;;;;;;;20.14;50.91;97365.34;7283619;19;131033;-40
2024/01/15 05:04:08;;;;;;;204.48;7.95;;;;;;;20.17;50.27;97357.19;7289908;19;130123;-39
2024/01/15 05:06:34;;;;;;;193.68;7.85;;;;;;;20.18;50.84;97369.25;7290110;19;132045;-38
2024/01/15 05:08:59;;;;;;;201.48;8.07;;;;;;;20.21;50.35;97376.72;7286806;19;131324;-40
2024/01/15 05:11:25;;;;;;;207.93;8.25;;;;;;;20.26;50.80;97379.56;7287814;19;131402;-41
2024/01/15 05:13:50;;;;;;;212.48;8.95;;;;;;;20.32;50.15;97368.38;7290232;19;130062;-43
2024/01/15 05:16:15;;;;;;;195.23;8.07;;;;;;;20.30;50.55;97384.22;7285772;19;129046;-40
2024/01/15 05:18:40;;;;;;;266.95;11.63;;;;;;;20.26;50.89;97387.41;7290300;19;130391;-37
2024/01/15 05:21:06;;;;;;;307.20;12.63;;;;;;;20.25;50.62;97372.72;7293696;19;130826;-41
2024/01/15 05:23:31;;;;;;;174.35;7.18;;;;;;;20.16;50.99;97381.69;7294197;19;131709;-37
2024/01/15 05:25:57;;;;;;;214.30;8.90;;;;;;;20.17;50.78;97378.06;7293275;19;129677;-45
2024/01/15 05:28:22;;;;;;;238.23;9.48;;;;;;;19.92;51.20;97381.94;7286826;19;129853;-40
2024/01/15 05:30:48;;;;;;;256.45;10.77;;;;;;;19.78;51.18;97382.78;7297252;19;130378;-39
2024/01/15 05:33:13;;;;;;;155.45;6.65;;;;;;;19.70;51.56;97375.84;7292381;19;131022;-38
2024/01/15 05:35:39;;;;;;;136.27;6.07;;;;;;;19.67;51.77;97380.66;7296362;19;129634;-43
2024/01/15 05:38:04;;;;;;;238.85;10.20;;;;;;;19.64;51.54;97376.59;7280945;19;130527;-44
2024/01/15 05:40:29;;;;;;;202.88;8.23;;;;;;;19.65;51.47;97369.59;7295220;19;130713;-41
2024/01/15 05:42:55;;;;;;;224.70;9.20;;;;;;;19.63;51.96;97374.16;7293678;19;130195;-39
2024/01/15 05:45:20;;;;;;;203.38;8.38;;;;;;;19.64;51.35;97381.00;7292936;19;130671;-42
2024/01/15 05:47:45;;;;;;;209.15;8.38;;;;;;;19.72;51.50;97391.34;7288886;19;129576;-45
2024/01/15 05:50:11;;;;;;;200.73;8.00;;;;;;;19.79;51.14;97392.22;7295520;19;130272;-44
2024/01/15 05:52:36;;;;;;;170.93;7.40;;;;;;;19.83;51.60;97396.09;7294560;19;132155;-40
2024/01/15 05:55:03;;;;;;;230.00;9.23;;;;;;;19.84;51.21;97397.69;7293960;19;131522;-39
2024/01/15 05:57:28;;;;;;;212.17;8.63;;;;;;;19.82;51.81;97390.06;7290444;19;131451;-45
2024/01/15 05:59:53;;;;;;;267.98;11.10;;;;;;;19.81;51.48;97405.88;7289855;19;130731;-45
2024/01/15 06:02:19;;;;;;;143.45;6.15;;;;;;;19.84;52.11;97392.47;7284412;19;129784;-43
2024/01/15 06:04:44;;;;;;;264.70;11.48;;;;;;;19.74;52.00;97387.56;7285913;19;130773;-39
2024/01/15 06:07:10;;;;;;;324.67;13.30;;;;;;;19.76;52.03;97374.34;7275426;19;132760;-43
2024/01/15 06:09:35;;;;;;;220.90;9.65;;;;;;;19.71;52.36;97371.47;7278073;19;132185;-45
2024/01/15 06:12:00;;;;;;;157.95;6.57;;;;;;;19.71;52.27;97379.28;7293717;19;130114;-39
2024/01/15 06:14:26;;;;;;;240.50;10.63;;;;;;;19.67;52.66;97375.44;7289354;19;129093;-43
2024/01/15 06:16:52;;;;;;;275.52;11.07;;;;;;;19.62;52.89;97375.16;7294553;19;131022;-41
2024/01/15 06:19:17;;;;;;;252.73;10.57;;;;;;;19.74;52.39;97386.72;7291261;19;130373;-41
2024/01/15 06:21:42;;;;;;;159.10;6.53;;;;;;;19.76;51.23;97364.72;7295170;19;130093;-41
2024/01/15 06:24:09;;;;;;;245.70;10.15;;;;;;;19.87;51.21;97366.03;7294665;19;131101;-40
2024/01/15 06:26:35;;;;;;;147.35;6.00;;;;;;;19.94;50.96;97370.34;7290973;19;131637;-39
2024/01/15 06:29:00;;;;;;;200.95;8.38;;;;;;;19.95;51.02;97364.13;7290524;19;132515;-38
2024/01/15 06:31:25;;;;;;;169.88;7.20;;;;;;;19.95;51.51;97364.13;7295143;19;131537;-41
2024/01/15 06:33:51;;;;;;;210.15;9.15;;;;;;;19.82;48.70;97355.34;7292650;19;131416;-43
2024/01/15 06:36:16;;;;;;;152.73;6.63;;;;;;;19.79;48.95;97346.09;7287859;19;130118;-44
2024/01/15 06:38:44;;;;;;;216.52;9.35;;;;;;;19.90;48.37;97360.47;7287919;19;130963;-40
2024/01/15 06:41:09;;;;;;;164.68;7.53;;;;;;;19.84;47.20;97366.41;7289315;19;129216;-44
2024/01/15 06:43:34;;;;;;;294.60;13.07;;;;;;;19.84;47.13;97366.41;7288383;19;131453;-41
2024/01/15 06:46:00;;;;;;;284.80;12.80;;;;;;;19.81;46.04;97367.59;7286334;19;131492;-42
2024/01/15 06:48:25;;;;;;;226.82;11.10;;;;;;;19.73;44.19;97364.28;7283401;19;130337;-39
2024/01/15 06:50:50;;;;;;;216.73;10.45;;;;;;;19.70;43.01;97377.69;7289284;19;129464;-44
2024/01/15 06:53:16;;;;;;;231.13;11.35;;;;;;;19.65;40.89;97380.03;7291520;19;129568;-45
2024/01/15 06:55:41;;;;;;;260.88;12.70;;;;;;;19.98;38.97;97378.63;7290778;19;130952;-39
2024/01/15 06:58:06;;;;;;;244.13;11.63;;;;;;;21.01;38.34;97357.19;7282883;19;131093;-39
2024/01/15 07:00:32;;;;;;;227.25;10.77;;;;;;;21.13;38.69;97376.56;7284473;19;129896;-35
2024/01/15 07:02:57;;;;;;;253.60;11.90;;;;;;;21.26;38.45;97375.84;7287485;19;130087;-36
2024/01/15 07:05:23;;;;;;;193.68;10.40;;;;;;;21.47;36.98;97381.81;7285297;19;130542;-34
2024/01/15 07:07:49;;;;;;;267.23;12.43;;;;;;;22.56;37.35;97370.41;7281398;19;130741;-40
2024/01/15 07:10:15;;;;;;;245.07;11.10;;;;;;;23.23;36.76;97368.38;7286733;19;132499;-41
2024/01/15 07:12:43;;;;;;;318.42;14.25;;;;;;;23.84;36.46;97380.19;7280011;19;129977;-45
2024/01/15 07:15:09;;;;;;;284.23;12.90;;;;;;;23.64;36.19;97387.28;7286640;19;130402;-43
2024/01/15 07:17:35;;;;;;;208.68;9.95;;;;;;;23.47;36.61;97391.38;7286132;19;131397;-43
2024/01/15 07:20:00;;;;;;;203.02;9.77;;;;;;;23.61;36.74;97392.97;7280740;19;131719;-39
2024/01/15 07:22:25;;;;;;;214.63;9.98;;;;;;;23.01;36.88;97412.34;7287845;19;130818;-43
2024/01/15 07:24:51;;;;;;;300.10;14.13;;;;;;;22.58;38.14;97410.28;7284306;19;130170;-42
2024/01/15 07:27:16;;;;;;;207.27;9.85;;;;;;;22.18;39.18;97413.78;7280856;19;130099;-40
2024/01/15 07:29:42;;;;;;;285.38;12.60;;;;;;;21.92;39.38;97420.50;7281727;19;130578;-42
2024/01/15 07:32:08;;;;;;;306.20;13.95;;;;;;;21.33;40.69;97402.84;7284568;19;129645;-41
2024/01/15 07:34:33;;;;;;;276.50;12.97;;;;;;;21.38;41.56;97406.50;7283465;19;130439;-39
2024/01/15 07:36:59;;;;;;;200.35;9.45;;;;;;;21.28;41.32;97410.44;7289765;19;129891;-36
2024/01/15 07:39:25;;;;;;;259.00;11.83;;;;;;;21.44;41.96;97413.56;7283542;19;130880;-42
2024/01/15 07:41:51;;;;;;;238.75;11.45;;;;;;;21.26;41.85;97413.25;7284404;19;129906;-42
2024/01/15 07:44:16;;;;;;;178.83;8.83;;;;;;;21.23;42.55;97408.41;7283969;19;131216;-42
2024/01/15 07:46:45;;;;;;;188.32;9.00;;;;;;;20.95;42.38;97412.78;7287318;19;132279;-38
2024/01/15 07:49:11;;;;;;;254.40;11.73;;;;;;;20.97;43.34;97416.03;7285207;19;129859;-37
2024/01/15 07:51:36;;;;;;;254.48;11.90;;;;;;;20.65;42.86;97413.91;7285232;19;132970;-39
2024/01/15 07:54:02;;;;;;;249.23;11.93;;;;;;;20.53;43.11;97405.75;7285349;19;130217;-43
2024/01/15 07:56:27;;;;;;;157.48;7.85;;;;;;;20.47;43.17;97413.53;7284394;19;130375;-43
2024/01/15 07:58:53;;;;;;;250.57;11.18;;;;;;;20.30;43.68;97414.72;7282450;19;130375;-42
2024/01/15 08:01:18;;;;;;;210.32;9.70;;;;;;;20.11;43.97;97400.47;7292911;19;131481;-39
2024/01/15 08:03:43;;;;;;;175.52;8.70;;;;;;;20.15;44.55;97406.94;7283385;19;131398;-37
2024/01/15 08:06:09;;;;;;;272.23;12.77;;;;;;;20.05;43.35;97410.78;7282858;19;131023;-44
2024/01/15 08:08:35;;;;;;;216.50;10.23;;;;;;;19.93;44.26;97404.44;7281239;19;129998;-40
2024/01/15 08:11:01;;;;;;;334.53;15.93;;;;;;;19.90;43.92;97412.63;7277902;19;130434;-44
2024/01/15 08:13:27;;;;;;;272.00;12.80;;;;;;;19.91;45.81;97427.28;7271174;19;131083;-41
2024/01/15 08:15:52;;;;;;;181.35;8.60;;;;;;;19.81;43.35;97426.75;7285145;19;131289;-43
2024/01/15 08:18:18;;;;;;;211.68;9.63;;;;;;;19.77;43.30;97422.88;7289054;19;130423;-40
2024/01/15 08:20:43;;;;;;;323.23;14.68;;;;;;;19.81;44.88;97429.34;7281023;19;130621;-41
2024/01/15 08:23:09;;;;;;;306.67;14.50;;;;;;;19.78;44.95;97438.34;7271565;19;131855;-40
2024/01/15 08:25:34;;;;;;;310.25;14.77;;;;;;;19.82;44.26;97420.53;7273203;19;131581;-45
2024/01/15 08:28:00;;;;;;;199.00;9.07;;;;;;;19.87;44.27;97418.19;7285076;19;129480;-43
2024/01/15 08:30:27;;;;;;;246.68;11.85;;;;;;;19.84;43.87;97436.81;7292807;19;130342;-39
2024/01/15 08:32:54;;;;;;;214.50;10.27;;;;;;;19.84;44.17;97431.59;7283161;19;131290;-42
2024/01/15 08:35:22;;;;;;;214.10;10.02;;;;;;;19.84;43.80;97421.97;7285843;19;131309;-40
2024/01/15 08:37:51;;;;;;;231.00;10.57;;;;;;;19.86;43.37;97427.84;7288232;19;129375;-44
2024/01/15 08:40:16;;;;;;;252.27;11.93;;;;;;;19.87;44.38;97434.66;7289834;19;129778;-45
2024/01/15 08:42:42;;;;;;;140.80;7.35;;;;;;;19.82;43.65;97436.16;7286972;19;129998;-44
2024/01/15 08:45:09;;;;;;;231.60;10.88;;;;;;;19.72;44.00;97431.25;7290065;19;131791;-39
2024/01/15 08:47:34;;;;;;;277.73;13.10;;;;;;;19.71;43.89;97445.28;7284828;19;132309;-37
2024/01/15 08:50:00;;;;;;;112.85;6.60;;;;;;;19.61;42.17;97407.41;7281952;19;130300;-44
2024/01/15 08:52:25;;;;;;;236.75;11.85;;;;;;;19.63;40.30;97411.47;7289659;19;131825;-43
2024/01/15 08:54:51;;;;;;;222.70;10.93;;;;;;;19.61;39.39;97386.56;7291398;19;131243;-39
2024/01/15 08:57:16;;;;;;;311.45;14.70;;;;;;;19.81;38.60;97398.06;7290597;19;130326;-42
2024/01/15 08:59:42;;;;;;;299.02;14.90;;;;;;;20.04;37.55;97419.63;7287972;19;130959;-45
2024/01/15 09:02:07;;;;;;;213.13;11.35;;;;;;;20.83;36.41;97416.88;7297245;19;130749;-39
2024/01/15 09:04:33;;;;;;;273.63;13.32;;;;;;;20.65;35.67;97403.47;7295306;19;130388;-40
2024/01/15 09:06:58;;;;;;;224.70;11.07;;;;;;;21.12;35.67;97416.75;7299842;19;131073;-40
2024/01/15 09:09:24;;;;;;;233.02;11.80;;;;;;;21.06;34.63;97417.50;7286326;19;130932;-40
2024/01/15 09:11:51;;;;;;;153.53;8.27;;;;;;;20.89;34.48;97421.34;7295535;19;132973;-41
2024/01/15 09:14:16;;;;;;;;;;;;;;;20.58;34.28;97394.75;7293559;19;129594;-37
2024/01/15 09:16:42;;;;;;;207.03;10.70;;;;;;;20.70;35.05;97417.56;7293890;19;129096;-41
2024/01/15 09:19:07;;;;;;;219.98;11.15;;;;;;;20.85;35.04;97414.91;7292332;19;130973;-41
2024/01/15 09:21:33;;;;;;;185.18;9.85;;;;;;;20.68;34.07;97416.13;7294282;19;129381;-43
2024/01/15 09:23:58;;;;;;;241.30;12.20;;;;;;;20.72;33.67;97417.38;7296203;19;129693;-42
2024/01/15 09:26:23;;;;;;;208.43;10.50;;;;;;;20.79;35.44;97409.63;7295015;19;130375;-39
2024/01/15 09:28:49;;;;;;;224.90;11.50;;;;;;;20.56;34.05;97422.88;7294124;19;133824;-38
2024/01/15 09:31:14;;;;;;;222.75;11.13;;;;;;;20.46;34.47;97420.53;7290717;19;130978;-44
2024/01/15 09:33:40;;;;;;;217.13;10.13;;;;;;;20.43;34.55;97436.56;7293473;19;130335;-43
2024/01/15 09:36:05;;;;;;;220.25;10.63;;;;;;;20.16;34.25;97397.31;7295503;19;132367;-39
2024/01/15 09:38:31;;;;;;;235.55;11.82;;;;;;;20.28;34.09;97427.97;7290064;19;129628;-39
2024/01/15 09:40:57;;;;;;;328.77;15.50;;;;;;;20.16;34.36;97426.03;7293175;19;131012;-44
2024/01/15 09:43:22;;;;;;;243.77;12.02;;;;;;;20.05;33.87;97421.22;7286190;19;131410;-43
2024/01/15 09:45:49;;;;;;;197.18;10.65;;;;;;;19.99;34.12;97432.41;7286050;19;130025;-39
2024/01/15 09:48:15;;;;;;;274.30;13.35;;;;;;;19.93;34.38;97427.91;7282931;19;129611;-41
2024/01/15 09:50:40;;;;;;;200.18;9.95;;;;;;;19.72;34.65;97412.19;7289054;19;131435;-39
2024/01/15 09:53:06;;;;;;;325.48;14.98;;;;;;;19.89;33.48;97427.47;7290772;19;131091;-40
2024/01/15 09:55:32;;;;;;;189.75;9.45;;;;;;;19.85;34.54;97415.75;7288892;19;129451;-40
2024/01/15 09:58:00;;;;;;;126.57;7.22;;;;;;;19.73;35.47;97417.22;7292599;19;130283;-39
2024/01/15 10:00:26;;;;;;;290.52;13.52;;;;;;;19.68;35.50;97418.75;7290086;19;131276;-38
2024/01/15 10:02:52;;;;;;;339.85;16.52;;;;;;;19.56;34.32;97414.97;7285577;19;131876;-41
2024/01/15 10:05:17;;;;;;;325.80;15.20;;;;;;;19.63;35.96;97421.09;7275598;19;132146;-43
2024/01/15 10:07:45;;;;;;;290.98;13.20;;;;;;;19.50;35.65;97394.84;7277758;19;132831;-40
2024/01/15 10:10:11;;;;;;;346.70;16.45;;;;;;;19.69;36.39;97410.75;7277360;19;131037;-37
2024/01/15 10:12:37;;;;;;;270.73;12.57;;;;;;;19.44;36.96;97394.56;7278940;19;130340;-42
2024/01/15 10:15:04;;;;;;;193.43;9.23;;;;;;;19.56;36.67;97414.97;7292844;19;129800;-38
2024/01/15 10:17:30;;;;;;;219.93;10.95;;;;;;;19.65;37.93;97414.69;7292775;19;129417;-40
2024/01/15 10:19:56;;;;;;;286.85;13.38;;;;;;;19.87;38.31;97399.94;7290702;19;132751;-43
2024/01/15 10:22:23;;;;;;;221.38;10.48;;;;;;;20.01;38.79;97410.38;7295055;19;131992;-43
2024/01/15 10:24:48;;;;;;;259.58;12.13;;;;;;;20.47;39.31;97406.50;7284679;19;132538;-39
2024/01/15 10:27:14;;;;;;;241.70;10.90;;;;;;;20.53;39.69;97399.72;7282882;19;130126;-44
2024/01/15 10:29:41;;;;;;;224.70;10.02;;;;;;;20.09;39.60;97418.09;7286198;19;133350;-40
2024/01/15 10:32:10;;;;;;;259.83;11.68;;;;;;;20.93;38.45;97404.31;7289253;19;130496;-43
2024/01/15 10:34:40;;;;;;;271.88;13.55;;;;;;;21.13;38.18;97407.94;7284980;19;130212;-40
2024/01/15 10:37:07;;;;;;;219.10;10.30;;;;;;;21.16;38.51;97415.38;7287893;19;130177;-37
2024/01/15 10:39:33;;;;;;;230.90;10.55;;;;;;;21.05;37.98;97394.19;7292378;19;130185;-40
2024/01/15 10:41:58;;;;;;;291.17;13.60;;;;;;;20.92;37.71;97394.88;7285343;19;131016;-40
2024/01/15 10:44:25;;;;;;;282.42;13.10;;;;;;;21.04;38.13;97388.16;7291908;19;132294;-40
2024/01/15 10:46:51;;;;;;;171.95;8.05;;;;;;;21.11;38.06;97393.41;7290799;19;129426;-43
2024/01/15 10:49:18;;;;;;;246.73;10.93;;;;;;;21.24;37.78;97391.72;7287170;19;129682;-42
2024/01/15 10:51:44;;;;;;;162.25;7.88;;;;;;;21.02;37.48;97377.09;7290783;19;130444;-39
2024/01/15 10:54:13;;;;;;;195.98;8.82;;;;;;;21.08;38.44;97393.81;7291166;19;129799;-42
2024/01/15 10:56:39;;;;;;;221.18;10.23;;;;;;;20.82;37.71;97425.72;7290719;19;129779;-44
2024/01/15 10:59:04;;;;;;;158.60;7.78;;;;;;;20.73;38.26;97398.91;7290176;19;130219;-42